createdAt,value
2019-03-24T00:04:03.627Z,81.21
2019-03-24T00:09:08.244Z,80.25
2019-03-24T00:14:12.174Z,80.19
2019-03-24T00:19:15.920Z,79.35
2019-03-24T00:24:19.790Z,79.23
2019-03-24T00:29:23.779Z,78.52
2019-03-24T00:34:27.660Z,79.04
2019-03-24T00:39:31.622Z,78.85
2019-03-24T00:44:35.819Z,78.81
2019-03-24T00:49:39.877Z,79.88
2019-03-24T00:54:43.734Z,82.98
2019-03-24T00:59:47.602Z,82.72
2019-03-24T01:04:51.627Z,82.54
2019-03-24T01:09:56.689Z,82.24
2019-03-24T01:15:00.516Z,81.30
2019-03-24T01:20:05.300Z,80.30
2019-03-24T01:25:09.286Z,79.39
2019-03-24T01:30:13.421Z,80.74
2019-03-24T01:35:17.295Z,81.13
2019-03-24T01:40:21.111Z,82.15
2019-03-24T01:45:24.986Z,80.64
2019-03-24T01:50:28.936Z,80.39
2019-03-24T01:55:32.828Z,78.91
2019-03-24T02:00:36.809Z,78.67
2019-03-24T02:05:40.626Z,78.89
2019-03-24T02:10:44.553Z,80.42
2019-03-24T02:15:48.631Z,79.53
2019-03-24T02:20:52.466Z,78.89
2019-03-24T02:25:56.343Z,81.61
2019-03-24T02:31:00.183Z,80.30
2019-03-24T02:36:04.078Z,79.36
2019-03-24T02:41:07.826Z,80.13
2019-03-24T02:46:23.651Z,80.04
2019-03-24T02:51:17.303Z,80.16
2019-03-24T02:56:21.146Z,80.80
2019-03-24T03:01:24.990Z,80.66
2019-03-24T03:06:28.853Z,81.08
2019-03-24T03:11:32.608Z,80.68
2019-03-24T03:16:38.670Z,80.16
2019-03-24T03:21:42.341Z,79.86
2019-03-24T03:26:46.302Z,79.99
2019-03-24T03:31:50.198Z,79.70
2019-03-24T03:36:54.012Z,79.37
2019-03-24T03:41:57.880Z,79.38
2019-03-24T03:47:01.717Z,79.31
2019-03-24T03:52:05.634Z,79.16
2019-03-24T03:57:09.448Z,79.61
2019-03-24T04:02:13.271Z,80.06
2019-03-24T04:07:17.145Z,79.63
2019-03-24T04:12:20.980Z,79.06
2019-03-24T04:17:24.838Z,78.67
2019-03-24T04:22:28.687Z,78.14
2019-03-24T04:27:32.445Z,78.14
2019-03-24T04:32:36.236Z,78.39
2019-03-24T04:37:40.059Z,78.37
2019-03-24T04:42:43.811Z,77.92
2019-03-24T04:47:47.609Z,78.11
2019-03-24T04:52:51.460Z,77.49
2019-03-24T04:57:55.262Z,77.43
2019-03-24T05:02:59.130Z,78.00
2019-03-24T05:08:03.573Z,78.06
2019-03-24T05:13:07.328Z,77.98
2019-03-24T05:18:12.040Z,78.06
2019-03-24T05:23:16.224Z,78.10
2019-03-24T05:28:20.056Z,78.21
2019-03-24T05:33:23.828Z,78.27
2019-03-24T05:38:27.688Z,78.21
2019-03-24T05:43:31.465Z,77.69
2019-03-24T05:48:35.245Z,77.91
2019-03-24T05:53:39.409Z,77.77
2019-03-24T05:58:43.136Z,77.80
2019-03-24T06:03:46.891Z,77.36
2019-03-24T06:08:50.647Z,75.79
2019-03-24T06:13:54.419Z,72.97
2019-03-24T06:18:58.642Z,72.67
2019-03-24T06:24:02.594Z,72.04
2019-03-24T06:29:06.371Z,72.37
2019-03-24T06:34:10.165Z,71.49
2019-03-24T06:39:13.931Z,71.02
2019-03-24T06:44:17.705Z,71.14
2019-03-24T06:49:21.600Z,70.59
2019-03-24T06:54:25.400Z,70.05
2019-03-24T06:59:29.181Z,68.93
2019-03-24T07:04:32.919Z,68.07
2019-03-24T07:09:36.675Z,67.79
2019-03-24T07:14:40.496Z,67.45
2019-03-24T07:19:44.219Z,66.76
2019-03-24T07:24:48.468Z,66.80
2019-03-24T07:29:52.238Z,67.01
2019-03-24T07:34:56.830Z,67.08
2019-03-24T07:40:00.616Z,65.91
2019-03-24T07:45:05.862Z,65.31
2019-03-24T07:50:10.263Z,65.23
2019-03-24T07:55:14.021Z,64.33
2019-03-24T08:00:36.161Z,64.89
2019-03-24T08:05:40.069Z,64.37
2019-03-24T08:10:43.805Z,66.70
2019-03-24T08:15:47.657Z,65.08
2019-03-24T08:20:51.481Z,64.47
2019-03-24T08:25:55.284Z,63.12
2019-03-24T08:30:59.074Z,65.15
2019-03-24T08:36:03.327Z,63.74
2019-03-24T08:41:07.545Z,62.70
2019-03-24T08:46:11.636Z,63.28
2019-03-24T08:51:15.387Z,64.35
2019-03-24T08:56:19.293Z,63.24
2019-03-24T09:01:23.076Z,62.88
2019-03-24T09:06:26.854Z,61.54
2019-03-24T09:11:31.635Z,60.78
2019-03-24T09:16:35.657Z,62.75
2019-03-24T09:21:39.400Z,62.10
2019-03-24T09:26:43.253Z,62.47
2019-03-24T09:31:47.007Z,62.79
2019-03-24T09:36:50.900Z,63.09
2019-03-24T09:41:54.653Z,62.21
2019-03-24T09:46:58.584Z,60.40
2019-03-24T09:52:02.477Z,60.20
2019-03-24T09:57:06.314Z,60.90
2019-03-24T10:02:10.107Z,59.71
2019-03-24T10:07:13.865Z,59.49
2019-03-24T10:12:17.718Z,57.18
2019-03-24T10:17:21.480Z,56.50
2019-03-24T10:22:25.284Z,56.62
2019-03-24T10:27:29.062Z,55.97
2019-03-24T10:32:32.865Z,54.52
2019-03-24T10:37:36.912Z,54.91
2019-03-24T10:42:40.958Z,53.34
2019-03-24T10:47:47.178Z,52.29
2019-03-24T10:52:50.960Z,51.52
2019-03-24T10:57:54.724Z,51.55
2019-03-24T11:02:58.467Z,50.51
2019-03-24T11:08:02.268Z,48.69
2019-03-24T11:13:06.313Z,50.08
2019-03-24T11:18:10.086Z,49.18
2019-03-24T11:23:13.897Z,51.02
2019-03-24T11:28:19.283Z,48.17
2019-03-24T11:33:23.325Z,48.73
2019-03-24T11:38:27.180Z,48.36
2019-03-24T11:43:30.904Z,46.54
2019-03-24T11:48:34.829Z,46.97
2019-03-24T11:53:38.788Z,45.40
2019-03-24T11:58:42.654Z,46.44
2019-03-24T12:03:46.537Z,46.63
2019-03-24T12:08:50.306Z,45.51
2019-03-24T12:13:54.415Z,44.48
2019-03-24T12:18:58.330Z,46.75
2019-03-24T12:24:02.172Z,45.72
2019-03-24T12:29:05.966Z,45.09
2019-03-24T12:34:09.812Z,46.91
2019-03-24T12:39:13.636Z,44.51
2019-03-24T12:44:17.507Z,43.82
2019-03-24T12:49:21.615Z,43.14
2019-03-24T12:54:25.704Z,45.53
2019-03-24T12:59:30.062Z,44.80
2019-03-24T13:04:34.134Z,46.51
2019-03-24T13:09:37.995Z,44.76
2019-03-24T13:14:41.977Z,45.45
2019-03-24T13:19:45.842Z,45.53
2019-03-24T13:24:49.804Z,44.78
2019-03-24T13:29:53.658Z,47.73
2019-03-24T13:34:57.474Z,48.67
2019-03-24T13:40:01.296Z,46.30
2019-03-24T13:45:05.218Z,47.46
2019-03-24T13:50:09.417Z,46.69
2019-03-24T13:55:13.449Z,46.18
2019-03-24T14:00:18.026Z,45.76
2019-03-24T14:05:21.857Z,45.77
2019-03-24T14:10:25.645Z,45.35
2019-03-24T14:15:31.678Z,45.47
2019-03-24T14:20:43.313Z,44.43
2019-03-24T14:25:41.341Z,44.27
2019-03-24T14:30:47.495Z,44.65
2019-03-24T14:35:51.584Z,44.94
2019-03-24T14:40:55.457Z,44.15
2019-03-24T14:45:59.339Z,45.82
2019-03-24T14:51:03.233Z,44.72
2019-03-24T14:56:07.160Z,43.55
2019-03-24T15:01:11.040Z,44.37
2019-03-24T15:06:14.879Z,43.27
2019-03-24T15:11:18.880Z,44.81
2019-03-24T15:16:23.106Z,47.18
2019-03-24T15:21:26.995Z,47.85
2019-03-24T15:26:32.942Z,48.70
2019-03-24T15:31:36.778Z,49.51
2019-03-24T15:36:40.660Z,49.50
2019-03-24T15:41:44.506Z,49.35
2019-03-24T15:46:48.718Z,48.80
2019-03-24T15:51:52.559Z,49.25
2019-03-24T15:56:56.583Z,49.51
2019-03-24T16:02:00.412Z,49.69
2019-03-24T16:07:04.428Z,48.06
2019-03-24T16:12:08.397Z,48.59
2019-03-24T16:17:12.309Z,47.88
2019-03-24T16:22:16.270Z,47.33
2019-03-24T16:27:20.300Z,48.06
2019-03-24T16:32:24.661Z,48.01
2019-03-24T16:37:28.539Z,47.53
2019-03-24T16:42:32.431Z,46.95
2019-03-24T16:47:36.315Z,47.57
2019-03-24T16:52:40.224Z,46.20
2019-03-24T16:57:44.421Z,46.81
2019-03-24T17:02:48.565Z,46.08
2019-03-24T17:07:52.526Z,46.56
2019-03-24T17:12:59.908Z,47.82
2019-03-24T17:18:04.262Z,47.80
2019-03-24T17:23:08.189Z,49.81
2019-03-24T17:28:12.135Z,49.26
2019-03-24T17:33:16.160Z,50.28
2019-03-24T17:38:20.203Z,49.59
2019-03-24T17:43:24.146Z,50.64
2019-03-24T17:48:28.056Z,49.78
2019-03-24T17:53:31.937Z,51.28
2019-03-24T17:58:35.950Z,56.20
2019-03-24T18:03:40.056Z,55.94
2019-03-24T18:08:44.015Z,55.49
2019-03-24T18:13:47.858Z,55.88
2019-03-24T18:18:51.897Z,56.59
2019-03-24T18:23:56.114Z,56.51
2019-03-24T18:29:00.118Z,56.23
2019-03-24T18:34:04.213Z,57.22
2019-03-24T18:39:12.616Z,57.87
2019-03-24T18:44:16.688Z,58.37
2019-03-24T18:49:20.636Z,57.01
2019-03-24T18:54:24.475Z,56.41
2019-03-24T18:59:28.326Z,55.97
2019-03-24T19:04:34.406Z,58.76
2019-03-24T19:09:38.449Z,59.57
2019-03-24T19:14:42.315Z,60.04
2019-03-24T19:19:46.322Z,58.76
2019-03-24T19:24:50.244Z,58.13
2019-03-24T19:29:54.110Z,58.75
2019-03-24T19:34:57.904Z,59.01
2019-03-24T19:40:01.827Z,58.89
2019-03-24T19:45:06.319Z,57.00
2019-03-24T19:50:10.334Z,56.94
2019-03-24T19:55:14.513Z,56.32
2019-03-24T20:00:18.468Z,55.67
2019-03-24T20:05:22.445Z,49.33
2019-03-24T20:10:26.286Z,49.39
2019-03-24T20:15:30.170Z,49.35
2019-03-24T20:20:34.178Z,49.07
2019-03-24T20:25:38.048Z,49.90
2019-03-24T20:30:41.906Z,48.07
2019-03-24T20:35:46.039Z,45.82
2019-03-24T20:40:49.952Z,45.46
2019-03-24T20:45:53.931Z,45.65
2019-03-24T20:50:57.808Z,44.56
2019-03-24T20:56:01.773Z,45.50
2019-03-24T21:01:05.685Z,46.50
2019-03-24T21:06:09.620Z,45.82
2019-03-24T21:11:13.621Z,47.36
2019-03-24T21:16:17.626Z,46.22
2019-03-24T21:21:21.431Z,47.12
2019-03-24T21:26:25.398Z,46.80
2019-03-24T21:31:29.203Z,48.37
2019-03-24T21:36:33.015Z,50.49
2019-03-24T21:41:36.976Z,63.42
2019-03-24T21:46:40.932Z,64.01
2019-03-24T21:51:45.239Z,66.39
2019-03-24T21:56:49.131Z,66.23
2019-03-24T22:01:53.129Z,67.11
2019-03-24T22:06:57.855Z,70.08
2019-03-24T22:12:02.187Z,70.70
2019-03-24T22:17:05.951Z,68.78
2019-03-24T22:22:09.727Z,68.49
2019-03-24T22:27:13.516Z,69.96
2019-03-24T22:32:17.279Z,72.75
2019-03-24T22:37:21.166Z,68.96
2019-03-24T22:42:24.943Z,71.56
2019-03-24T22:47:28.967Z,75.58
2019-03-24T22:52:32.893Z,76.33
2019-03-24T22:57:36.659Z,73.89
2019-03-24T23:02:40.566Z,74.56
2019-03-24T23:07:44.349Z,77.42
2019-03-24T23:12:48.514Z,76.24
2019-03-24T23:17:52.323Z,73.27
2019-03-24T23:22:56.111Z,73.57
2019-03-24T23:28:00.345Z,75.60
2019-03-24T23:33:04.628Z,73.76
2019-03-24T23:38:08.411Z,77.76
2019-03-24T23:43:12.240Z,78.26
2019-03-24T23:48:16.277Z,79.53
2019-03-24T23:53:20.130Z,77.45
2019-03-24T23:58:23.856Z,75.58
